EW4235 Weather Reports


Display with metric or nautical units.
time (UTC)temp
F
wind
direction
speed
MPH
gust
MPH
rain 1hr
in
rain 24hr
in
rain mn
in
humidity
%
barometer
mb
20190124135129 58 250 2.0 7.0 0.04 0.44 0.44 97 997.3
20190124134626 58 211 2.0 7.0 0.04 0.44 0.44 97 997.7
20190124134127 58 197 2.0 6.0 0.05 0.44 0.44 97 997.8
20190124133626 58 210 2.0 5.0 0.05 0.44 0.44 97 997.8
20190124133126 58 206 2.0 7.0 0.04 0.43 0.44 97 997.9
20190124132626 58 187 2.0 10.0 0.05 0.43 0.43 97 998.0
20190124132125 58 160 2.0 10.0 0.05 0.43 0.43 97 998.2
20190124131626 58 156 2.0 7.0 0.06 0.43 0.43 97 998.3
20190124131127 58 207 2.0 7.0 0.05 0.42 0.42 97 998.3
20190124130626 58 251 2.0 7.0 0.05 0.42 0.42 97 998.5
20190124130127 58 252 3.0 8.0 0.04 0.41 0.41 97 998.5
20190124125624 58 180 2.0 8.0 0.03 0.40 0.40 97 998.7
20190124125125 58 199 2.0 6.0 0.03 0.40 0.40 97 998.8
20190124124626 58 122 3.0 8.0 0.04 0.40 0.40 97 998.8
20190124124123 57 153 3.0 9.0 0.03 0.39 0.39 97 998.9
20190124123624 57 158 3.0 9.0 0.03 0.39 0.39 97 998.9
20190124123127 57 197 3.0 12.0 0.03 0.39 0.39 97 998.9
20190124122625 57 158 3.0 12.0 0.02 0.38 0.38 97 999.0
20190124122123 57 229 2.0 8.0 0.02 0.38 0.38 97 999.0
20190124121622 57 167 3.0 9.0 0.01 0.37 0.37 96 999.0
20190124121123 57 198 4.0 14.0 0.01 0.37 0.37 97 999.0
20190124120621 57 203 4.0 14.0 0.02 0.37 0.37 97 999.0
20190124120122 57 193 3.0 7.0 0.03 0.37 0.37 97 999.1
20190124115623 57 203 2.0 7.0 0.05 0.37 0.37 97 999.2
20190124115124 57 148 2.0 7.0 0.06 0.37 0.37 97 999.3
20190124114622 57 155 3.0 9.0 0.05 0.36 0.37 97 999.4
20190124114123 57 164 3.0 9.0 0.05 0.36 0.36 97 999.5
20190124113620 57 200 2.0 6.0 0.06 0.36 0.36 97 999.5
20190124113121 56 124 2.0 7.0 0.06 0.36 0.36 97 999.6
20190124112620 56 147 2.0 7.0 0.06 0.36 0.36 97 999.4
20190124112120 56 264 3.0 10.0 0.06 0.36 0.36 97 999.6
20190124111622 56 164 4.0 10.0 0.06 0.36 0.36 97 999.7
20190124111121 56 168 3.0 7.0 0.07 0.36 0.36 97 999.8
20190124110621 56 210 2.0 6.0 0.06 0.35 0.35 97 1000.2
20190124110121 56 185 2.0 6.0 0.06 0.34 0.34 97 1000.1
20190124105620 56 114 3.0 7.0 0.04 0.32 0.33 97 1000.4
20190124105119 56 53 3.0 9.0 0.03 0.31 0.31 97 1000.5
20190124104617 56 152 2.0 9.0 0.04 0.31 0.31 97 1000.7
20190124104118 56 122 2.0 8.0 0.04 0.31 0.31 97 1000.8
20190124103617 56 141 2.0 7.0 0.03 0.30 0.30 97 1000.9
20190124103116 56 143 2.0 7.0 0.03 0.30 0.30 97 1001.1
20190124102616 56 297 2.0 7.0 0.03 0.30 0.30 98 1001.2
20190124102116 56 150 1.0 6.0 0.04 0.30 0.30 97 1001.4
20190124101617 56 175 2.0 7.0 0.04 0.30 0.30 98 1001.6
20190124101116 56 123 2.0 9.0 0.03 0.29 0.29 98 1001.8
20190124100616 56 165 2.0 9.0 0.04 0.29 0.29 98 1001.9
20190124100115 55 157 1.0 4.0 0.03 0.28 0.28 98 1002.2
20190124095616 55 158 2.0 7.0 0.04 0.28 0.28 98 1002.4
20190124095115 55 162 2.0 7.0 0.04 0.28 0.28 98 1002.4
20190124094613 55 169 2.0 6.0 0.03 0.27 0.27 98 1002.6
20190124094114 55 195 2.0 6.0 0.05 0.27 0.27 98 1002.7
20190124093614 55 250 2.0 6.0 0.06 0.27 0.27 98 1003.1
20190124093115 55 229 2.0 4.0 0.06 0.27 0.27 98 1003.1
20190124092613 54 162 1.0 4.0 0.07 0.27 0.27 97 1003.2
20190124092117 54 143 1.0 3.0 0.06 0.26 0.26 97 1003.5
20190124091615 54 148 2.0 6.0 0.06 0.26 0.26 97 1003.6
20190124091112 54 169 2.0 6.0 0.07 0.26 0.26 97 1003.6
20190124090611 54 126 2.0 5.0 0.06 0.25 0.25 97 1003.8
20190124090113 54 105 2.0 5.0 0.06 0.25 0.25 98 1004.0
20190124085613 54 132 1.0 4.0 0.05 0.24 0.24 98 1004.2
20190124085111 54 107 1.0 3.0 0.05 0.24 0.24 98 1004.4
20190124084613 54 162 1.0 3.0 0.06 0.24 0.24 98 1004.6
20190124084112 54 148 1.0 4.0 0.05 0.22 0.22 98 1004.8
20190124083612 54 172 2.0 5.0 0.04 0.21 0.21 98 1005.0
20190124083111 53 236 1.0 5.0 0.05 0.21 0.21 98 1005.2
20190124082611 53 128 1.0 4.0 0.06 0.20 0.20 98 1005.3
20190124082111 53 150 1.0 4.0 0.07 0.20 0.20 98 1005.5
20190124081612 52 150 1.0 2.0 0.09 0.20 0.20 98 1005.7
20190124081112 52 140 0.0 2.0 0.09 0.19 0.19 98 1006.0
20190124080612 51 115 0.0 2.0 0.10 0.19 0.19 97 1006.1
20190124080111 51 265 0.0 1.0 0.11 0.19 0.19 97 1006.3
20190124075613 51 143 0.0 1.0 0.12 0.19 0.19 97 1006.3
20190124075113 50 122 0.0 1.0 0.14 0.19 0.19 97 1006.5
20190124074612 50 141 0.0 1.0 0.15 0.18 0.18 97 1006.5
20190124074114 49 195 0.0 1.0 0.14 0.17 0.17 97 1006.7
20190124073611 49 93 0.0 1.0 0.14 0.17 0.17 97 1006.8
20190124073113 49 96 0.0 1.0 0.13 0.16 0.16 97 1007.0
20190124072612 49 99 0.0 1.0 0.12 0.14 0.15 97 1007.3
20190124072112 48 241 0.0 1.0 0.11 0.13 0.13 97 1007.4
20190124071613 48 241 0.0 1.0 0.10 0.11 0.12 97 1007.5
20190124071112 48 241 0.0 1.0 0.09 0.10 0.10 97 1007.6
20190124070609 47 241 0.0 1.0 0.08 0.09 0.09 96 1007.8
20190124070109 47 181 0.0 0.0 0.08 0.08 0.09 97 1007.7
20190124065611 47 181 0.0 1.0 0.07 0.07 0.08 97 1007.9
20190124065108 46 185 0.0 1.0 0.05 0.05 0.06 97 1008.0
20190124064609 45 261 0.0 1.0 0.03 0.03 0.04 96 1008.2
20190124064109 44 148 0.0 0.0 0.03 0.03 0.03 96 1008.2
20190124063608 44 101 0.0 0.0 0.03 0.03 0.03 95 1008.1
20190124063107 44 101 0.0 1.0 0.03 0.03 0.03 95 1008.2
20190124062607 44 101 0.0 1.0 0.02 0.02 0.02 95 1008.2
20190124062106 43 101 0.0 0.0 0.02 0.02 0.02 95 1008.3
20190124061607 42 101 0.0 0.0 0.01 0.01 0.02 94 1008.4
20190124061106 42 101 0.0 0.0 0.01 0.01 0.01 94 1008.4
20190124060605 42 101 0.0 0.0 0.01 0.01 0.01 94 1008.5
20190124060106 42 101 0.0 0.0 0.00 0.00 0.00 94 1008.5
20190124055606 42 101 0.0 0.0 0.00 0.00 0.00 93 1008.6
20190124055106 42 101 0.0 0.0 0.00 0.00 0.00 93 1008.9
20190124054607 42 101 0.0 0.0 0.00 0.00 0.00 93 1008.9
20190124054106 42 101 0.0 0.0 0.00 0.00 0.00 93 1009.1
20190124053606 42 101 0.0 0.0 0.00 0.00 0.00 92 1009.2
20190124053104 42 101 0.0 1.0 0.00 0.00 0.00 92 1009.5
20190124052604 43 101 0.0 1.0 0.00 0.00 0.00 93 1009.6
20190124052102 43 95 0.0 1.0 0.00 0.00 0.00 92 1009.7
20190124051601 43 95 0.0 1.0 0.00 0.00 0.00 92 1010.1
20190124051102 43 110 0.0 1.0 0.00 0.00 0.00 91 1010.3
20190124050600 43 110 0.0 1.0 0.00 0.00 0.00 91 1010.4
20190124050100 43 110 0.0 1.0 0.00 0.00 0.00 90 1010.5
20190124045601 44 110 0.0 1.0 0.00 0.00 0.00 90 1010.6
20190124045059 44 110 0.0 1.0 0.00 0.00 0.00 89 1010.9
20190124044601 44 236 0.0 1.0 0.00 0.00 0.00 88 1011.1
20190124044059 44 237 0.0 0.0 0.00 0.00 0.00 86 1011.2
20190124043600 44 237 0.0 0.0 0.00 0.00 0.00 86 1011.2
20190124043059 44 237 0.0 2.0 0.00 0.00 0.00 86 1011.4
20190124042559 44 237 0.0 2.0 0.00 0.00 0.00 86 1011.6
20190124042100 44 206 0.0 0.0 0.00 0.00 0.00 85 1011.6
20190124041559 44 206 0.0 2.0 0.00 0.00 0.00 84 1011.6
20190124041058 44 206 0.0 2.0 0.00 0.00 0.00 84 1011.7
20190124040600 44 245 1.0 3.0 0.00 0.00 0.00 85 1011.8
20190124040058 43 217 1.0 3.0 0.00 0.00 0.00 85 1012.1
20190124035558 43 182 1.0 3.0 0.00 0.00 0.00 85 1012.1
20190124035057 42 98 1.0 3.0 0.00 0.00 0.00 85 1012.0
20190124034556 42 272 0.0 2.0 0.00 0.00 0.00 84 1012.2
20190124034054 42 118 0.0 1.0 0.00 0.00 0.00 84 1012.2
20190124033551 42 118 0.0 0.0 0.00 0.00 0.00 83 1012.2
20190124033052 42 118 0.0 0.0 0.00 0.00 0.00 84 1012.3
20190124032550 42 118 0.0 0.0 0.00 0.00 0.00 83 1012.2
20190124032051 42 118 0.0 0.0 0.00 0.00 0.00 83 1012.3
20190124031550 42 118 0.0 0.0 0.00 0.00 0.00 83 1012.5
20190124031048 42 118 0.0 1.0 0.00 0.00 0.00 82 1012.6
20190124030548 42 118 0.0 1.0 0.00 0.00 0.00 80 1012.7
20190124030048 43 118 0.0 0.0 0.00 0.00 0.00 79 1012.6
20190124025545 43 118 0.0 1.0 0.00 0.00 0.00 79 1012.6
20190124025044 43 118 0.0 1.0 0.00 0.00 0.00 78 1012.6
20190124024543 43 118 0.0 1.0 0.00 0.00 0.00 78 1012.6
20190124024044 43 118 0.0 2.0 0.00 0.00 0.00 78 1012.5
20190124023543 43 118 0.0 2.0 0.00 0.00 0.00 78 1012.7
20190124023043 43 266 0.0 1.0 0.00 0.00 0.00 78 1012.8
20190124022541 43 266 0.0 0.0 0.00 0.00 0.00 78 1013.1
20190124022039 43 266 0.0 0.0 0.00 0.00 0.00 78 1013.2
20190124021538 43 266 0.0 0.0 0.00 0.00 0.00 78 1013.3
20190124021039 43 266 0.0 0.0 0.00 0.00 0.00 78 1013.5
20190124020539 43 266 0.0 0.0 0.00 0.00 0.00 79 1013.5
20190124020038 43 266 0.0 0.0 0.00 0.00 0.00 79 1013.7
20190124015539 43 266 0.0 1.0 0.00 0.00 0.00 79 1013.9
20190124015038 43 266 0.0 1.0 0.00 0.00 0.00 78 1014.0
20190124014540 43 266 0.0 0.0 0.00 0.00 0.00 78 1013.9
20190124014039 43 266 0.0 0.0 0.00 0.00 0.00 78 1013.9
20190124013538 43 265 0.0 0.0 0.00 0.00 0.00 77 1014.0
20190124013040 43 265 0.0 0.0 0.00 0.00 0.00 78 1014.1
20190124012539 43 265 0.0 0.0 0.00 0.00 0.00 77 1014.1
20190124012039 43 265 0.0 0.0 0.00 0.00 0.00 77 1014.1
20190124011538 43 265 0.0 1.0 0.00 0.00 0.00 77 1014.3
20190124011039 43 265 0.0 1.0 0.00 0.00 0.00 77 1014.3
20190124010539 43 265 0.0 1.0 0.00 0.00 0.00 77 1014.4
20190124010039 43 266 0.0 0.0 0.00 0.00 0.00 76 1014.6
20190124005536 43 266 0.0 1.0 0.00 0.00 0.00 76 1014.8
20190124005036 44 266 0.0 1.0 0.00 0.00 0.00 76 1014.8
20190124004534 44 266 0.0 1.0 0.00 0.00 0.00 76 1014.9
20190124004037 44 250 0.0 1.0 0.00 0.00 0.00 76 1014.8
20190124003535 44 250 0.0 1.0 0.00 0.00 0.00 75 1014.8
20190124003037 44 250 0.0 1.0 0.00 0.00 0.00 75 1014.9
20190124002534 44 250 0.0 1.0 0.00 0.00 0.00 75 1015.0
20190124002033 44 264 0.0 1.0 0.00 0.00 0.00 75 1015.1
20190124001534 44 278 0.0 1.0 0.00 0.00 0.00 75 1015.2
20190124001032 44 279 0.0 2.0 0.00 0.00 0.00 74 1015.4
20190124000534 44 279 1.0 3.0 0.00 0.00 0.00 74 1015.6
20190124000035 45 279 1.0 3.0 0.00 0.00 0.00 74 1015.8
20190123235533 45 284 1.0 4.0 0.00 0.00 0.00 74 1015.8
20190123235034 45 263 1.0 4.0 0.00 0.00 0.00 74 1016.0
20190123234534 45 266 1.0 3.0 0.00 0.00 0.00 75 1016.2
20190123234033 46 274 1.0 2.0 0.00 0.00 0.00 75 1016.1
20190123233534 46 283 1.0 2.0 0.00 0.00 0.00 76 1016.1
20190123233032 46 277 0.0 2.0 0.00 0.00 0.00 76 1016.0
20190123232534 47 228 0.0 1.0 0.00 0.00 0.00 77 1016.1
20190123232033 47 246 0.0 1.0 0.00 0.00 0.00 77 1016.1
20190123231534 47 233 0.0 0.0 0.00 0.00 0.00 76 1016.0
20190123231032 47 215 0.0 0.0 0.00 0.00 0.00 76 1015.9
20190123230534 47 215 0.0 1.0 0.00 0.00 0.00 76 1016.0
20190123230033 47 215 0.0 1.0 0.00 0.00 0.00 75 1016.1
20190123225532 47 289 0.0 1.0 0.00 0.00 0.00 74 1016.2
20190123225033 47 126 0.0 1.0 0.00 0.00 0.00 74 1016.2
20190123224534 48 139 0.0 1.0 0.00 0.00 0.00 75 1016.2
20190123224033 47 190 0.0 1.0 0.00 0.00 0.00 74 1016.5
20190123223534 48 224 0.0 1.0 0.00 0.00 0.00 74 1016.7
20190123223033 48 224 0.0 1.0 0.00 0.00 0.00 74 1016.7
20190123222534 48 207 0.0 1.0 0.00 0.00 0.00 73 1016.5
20190123222033 48 207 0.0 1.0 0.00 0.00 0.00 72 1016.5
20190123221531 48 184 0.0 0.0 0.00 0.00 0.00 72 1016.5
20190123221030 49 198 0.0 0.0 0.00 0.00 0.00 71 1016.5
20190123220528 49 200 0.0 1.0 0.00 0.00 0.00 71 1016.6
20190123220026 49 111 0.0 2.0 0.00 0.00 0.00 71 1016.5
20190123215526 49 158 0.0 2.0 0.00 0.00 0.00 71 1016.7
20190123215027 50 140 1.0 2.0 0.00 0.00 0.00 70 1017.0
20190123214526 50 214 1.0 2.0 0.00 0.00 0.00 70 1017.1
20190123214026 50 197 1.0 4.0 0.00 0.00 0.00 70 1017.3
20190123213524 50 199 1.0 4.0 0.00 0.00 0.00 70 1017.2
20190123213022 50 170 1.0 4.0 0.00 0.00 0.00 70 1017.4
20190123212523 50 221 1.0 3.0 0.00 0.00 0.00 69 1017.4
20190123212022 50 165 1.0 5.0 0.00 0.00 0.00 69 1017.5
20190123211521 50 201 1.0 6.0 0.00 0.00 0.00 69 1017.6
20190123211020 50 218 2.0 6.0 0.00 0.00 0.00 69 1017.5
20190123210520 50 239 2.0 6.0 0.00 0.00 0.00 69 1017.6
20190123210022 50 216 2.0 5.0 0.00 0.00 0.00 69 1017.7
20190123205521 50 207 2.0 7.0 0.00 0.00 0.00 69 1017.7
20190123205021 50 233 2.0 7.0 0.00 0.00 0.00 68 1017.9
20190123204520 50 212 1.0 7.0 0.00 0.00 0.00 68 1018.1
20190123204018 50 174 2.0 7.0 0.00 0.00 0.00 68 1018.1
20190123203518 50 274 2.0 6.0 0.00 0.00 0.00 68 1018.2
20190123203018 50 252 1.0 6.0 0.00 0.00 0.00 67 1018.1
20190123202515 50 250 2.0 6.0 0.00 0.00 0.00 66 1018.2
20190123202014 50 239 2.0 5.0 0.00 0.00 0.00 66 1018.3
20190123201514 50 208 1.0 5.0 0.00 0.00 0.00 66 1018.2
20190123201015 50 236 2.0 7.0 0.00 0.00 0.00 66 1018.3
20190123200512 50 267 3.0 8.0 0.00 0.00 0.00 66 1018.6
20190123200013 49 217 2.0 8.0 0.00 0.00 0.00 66 1018.6
20190123195511 49 240 2.0 7.0 0.00 0.00 0.00 66 1018.7
20190123195010 49 246 3.0 7.0 0.00 0.00 0.00 66 1018.7
20190123194511 49 219 3.0 8.0 0.00 0.00 0.00 66 1018.9
20190123194008 49 266 2.0 8.0 0.00 0.00 0.00 66 1018.9
20190123193505 49 228 2.0 5.0 0.00 0.00 0.00 66 1019.1
20190123193004 49 172 3.0 9.0 0.00 0.00 0.00 67 1019.2
20190123192505 49 198 3.0 9.0 0.00 0.00 0.00 67 1019.3
20190123192005 49 220 2.0 5.0 0.00 0.00 0.00 67 1019.4
20190123191504 49 129 3.0 9.0 0.00 0.00 0.00 68 1019.4
20190123191005 49 262 4.0 10.0 0.00 0.00 0.00 67 1019.7
20190123190504 49 168 4.0 10.0 0.00 0.00 0.00 68 1019.6
20190123190005 49 212 4.0 13.0 0.00 0.00 0.00 68 1019.8
20190123185502 49 244 4.0 13.0 0.00 0.00 0.00 68 1020.0
20190123185005 49 201 3.0 17.0 0.00 0.00 0.00 68 1020.0
20190123184503 49 181 3.0 17.0 0.00 0.00 0.00 68 1020.3
20190123184006 48 154 3.0 8.0 0.00 0.00 0.00 67 1020.3
20190123183503 48 190 3.0 8.0 0.00 0.00 0.00 67 1020.5
20190123183004 48 233 3.0 8.0 0.00 0.00 0.00 67 1020.6
20190123182503 48 267 3.0 10.0 0.00 0.00 0.00 67 1020.7
20190123182009 48 224 3.0 12.0 0.00 0.00 0.00 67 1020.8
20190123181504 48 278 4.0 12.0 0.00 0.00 0.00 68 1021.0
20190123181004 48 237 3.0 11.0 0.00 0.00 0.00 68 1021.0
20190123180500 48 193 2.0 8.0 0.00 0.00 0.00 67 1021.1
20190123180001 47 266 3.0 8.0 0.00 0.00 0.00 66 1021.2
20190123175500 47 226 3.0 7.0 0.00 0.00 0.00 67 1021.4
20190123174959 47 231 3.0 7.0 0.00 0.00 0.00 66 1021.7
20190123174502 47 146 2.0 7.0 0.00 0.00 0.00 66 1021.8
20190123174000 47 272 2.0 6.0 0.00 0.00 0.00 66 1021.9
20190123173503 46 226 3.0 7.0 0.00 0.00 0.00 66 1022.3
20190123173001 46 179 2.0 7.0 0.00 0.00 0.00 66 1022.4
20190123172500 46 289 2.0 7.0 0.00 0.00 0.00 66 1022.4
20190123172000 46 257 2.0 7.0 0.00 0.00 0.00 66 1022.6
20190123171457 45 272 3.0 11.0 0.00 0.00 0.00 66 1022.8
20190123170958 45 263 3.0 11.0 0.00 0.00 0.00 66 1022.9
20190123170458 45 282 3.0 8.0 0.00 0.00 0.00 67 1022.8
20190123165958 44 244 3.0 8.0 0.00 0.00 0.00 66 1023.0
20190123165459 44 238 2.0 7.0 0.00 0.00 0.00 66 1023.1
20190123164958 44 236 2.0 7.0 0.00 0.00 0.00 66 1023.2
20190123164500 44 196 2.0 11.0 0.00 0.00 0.00 66 1023.4
20190123163959 44 200 3.0 11.0 0.00 0.00 0.00 66 1023.5
20190123163500 43 265 2.0 6.0 0.00 0.00 0.00 66 1023.7
20190123162957 43 205 2.0 8.0 0.00 0.00 0.00 66 1023.6
20190123162457 43 208 2.0 8.0 0.00 0.00 0.00 66 1023.7
20190123161958 43 219 3.0 9.0 0.00 0.00 0.00 66 1023.7
20190123161458 43 128 3.0 9.0 0.00 0.00 0.00 67 1024.0
20190123160957 42 238 3.0 7.0 0.00 0.00 0.00 67 1024.2
20190123160458 42 195 2.0 5.0 0.00 0.00 0.00 65 1024.2
20190123155959 42 167 2.0 5.0 0.00 0.00 0.00 64 1024.3
20190123155456 41 186 2.0 5.0 0.00 0.00 0.00 63 1024.6
20190123154956 41 270 2.0 6.0 0.00 0.00 0.00 61 1024.7
20190123154456 40 203 2.0 6.0 0.00 0.00 0.00 60 1024.9
20190123153956 40 247 2.0 6.0 0.00 0.00 0.00 58 1024.8
20190123153456 40 178 2.0 6.0 0.00 0.00 0.00 57 1025.0
20190123152955 39 188 1.0 6.0 0.00 0.00 0.00 56 1025.1
20190123152455 39 208 1.0 5.0 0.00 0.00 0.00 55 1025.1
20190123151956 38 283 2.0 6.0 0.00 0.00 0.00 55 1025.1
20190123151455 38 257 1.0 6.0 0.00 0.00 0.00 54 1025.2
20190123150957 38 163 1.0 3.0 0.00 0.00 0.00 53 1025.2
20190123150457 37 319 1.0 8.0 0.00 0.00 0.00 52 1025.2
20190123145956 37 196 1.0 8.0 0.00 0.00 0.00 51 1025.1
20190123145455 37 257 1.0 5.0 0.00 0.00 0.00 51 1025.2
20190123144956 36 178 1.0 4.0 0.00 0.00 0.00 50 1025.2
20190123144456 36 197 1.0 4.0 0.00 0.00 0.00 50 1025.0
20190123143956 36 227 1.0 4.0 0.00 0.00 0.00 49 1025.2
20190123143456 36 212 1.0 4.0 0.00 0.00 0.00 49 1025.3
20190123142957 35 225 1.0 5.0 0.00 0.00 0.00 48 1025.4
20190123142458 35 205 1.0 5.0 0.00 0.00 0.00 48 1025.3
20190123141957 35 209 1.0 4.0 0.00 0.00 0.00 48 1025.2
20190123141457 35 60 1.0 4.0 0.00 0.00 0.00 49 1025.2
20190123140956 34 213 1.0 5.0 0.00 0.00 0.00 48 1025.1
20190123140456 34 243 1.0 5.0 0.00 0.00 0.00 48 1025.3
20190123135957 34 167 1.0 4.0 0.00 0.00 0.00 48 1025.5
20190123135454 34 170 1.0 3.0 0.00 0.00 0.00 48 1025.6